createdAt,value
2019-04-27T00:03:02.214Z,3.33
2019-04-27T00:05:53.459Z,4.30
2019-04-27T00:08:35.197Z,5.50
2019-04-27T00:11:10.619Z,5.30
2019-04-27T00:13:44.113Z,3.20
2019-04-27T00:16:40.494Z,9.27
2019-04-27T00:19:31.798Z,3.70
2019-04-27T00:22:03.352Z,1.67
2019-04-27T00:24:30.357Z,2.90
2019-04-27T00:26:57.318Z,3.33
2019-04-27T00:29:25.974Z,4.20
2019-04-27T00:31:53.424Z,6.07
2019-04-27T00:34:23.581Z,2.90
2019-04-27T00:37:03.721Z,2.57
2019-04-27T00:39:45.491Z,5.80
2019-04-27T00:42:14.988Z,2.63
2019-04-27T00:44:43.020Z,4.87
2019-04-27T00:47:10.159Z,3.60
2019-04-27T00:49:37.108Z,2.07
2019-04-27T00:52:04.198Z,2.23
2019-04-27T00:54:31.128Z,2.50
2019-04-27T00:57:24.545Z,4.20
2019-04-27T01:00:09.905Z,4.30
2019-04-27T01:02:44.466Z,3.20
2019-04-27T01:05:16.294Z,3.70
2019-04-27T01:07:43.506Z,4.40
2019-04-27T01:10:23.391Z,2.87
2019-04-27T01:12:50.606Z,4.73
2019-04-27T01:15:17.523Z,4.30
2019-04-27T01:17:44.471Z,3.47
2019-04-27T01:20:11.536Z,2.93
2019-04-27T01:22:39.196Z,7.60
2019-04-27T01:25:08.680Z,3.70
2019-04-27T01:27:55.466Z,2.30
2019-04-27T01:30:51.133Z,2.93
2019-04-27T01:33:19.791Z,4.27
2019-04-27T01:35:46.953Z,4.43
2019-04-27T01:38:13.890Z,4.03
2019-04-27T01:40:40.863Z,2.60
2019-04-27T01:43:09.637Z,4.50
2019-04-27T01:45:38.966Z,6.60
2019-04-27T01:48:06.085Z,7.70
2019-04-27T01:50:33.171Z,4.00
2019-04-27T01:53:00.100Z,5.97
2019-04-27T01:55:27.191Z,5.23
2019-04-27T01:57:54.120Z,6.90
2019-04-27T02:00:35.496Z,4.00
2019-04-27T02:03:03.787Z,4.40
2019-04-27T02:05:39.139Z,4.97
2019-04-27T02:08:12.336Z,5.33
2019-04-27T02:10:39.676Z,5.13
2019-04-27T02:13:06.779Z,6.30
2019-04-27T02:15:33.827Z,4.70
2019-04-27T02:18:00.764Z,3.37
2019-04-27T02:20:28.227Z,5.60
2019-04-27T02:22:56.607Z,4.87
2019-04-27T02:25:23.586Z,4.80
2019-04-27T02:27:55.637Z,3.80
2019-04-27T02:30:42.209Z,5.43
2019-04-27T02:33:30.254Z,4.00
2019-04-27T02:35:59.848Z,4.27
2019-04-27T02:38:26.220Z,5.27
2019-04-27T02:40:59.780Z,6.87
2019-04-27T02:43:39.923Z,4.67
2019-04-27T02:46:06.539Z,7.20
2019-04-27T02:48:33.474Z,6.40
2019-04-27T02:51:03.480Z,5.97
2019-04-27T02:53:52.073Z,5.60
2019-04-27T02:56:20.199Z,6.83
2019-04-27T02:58:49.625Z,5.57
2019-04-27T03:01:16.553Z,4.40
2019-04-27T03:03:43.517Z,6.83
2019-04-27T03:06:10.601Z,5.40
2019-04-27T03:08:39.397Z,6.37
2019-04-27T03:11:09.756Z,6.77
2019-04-27T03:13:51.731Z,5.00
2019-04-27T03:16:36.111Z,3.33
2019-04-27T03:19:39.835Z,7.70
2019-04-27T03:22:29.780Z,5.03
2019-04-27T03:25:31.860Z,5.70
2019-04-27T03:28:05.414Z,4.33
2019-04-27T03:30:36.017Z,4.47
2019-04-27T03:33:02.944Z,8.47
2019-04-27T03:35:35.031Z,9.27
2019-04-27T03:38:00.562Z,5.50
2019-04-27T03:40:30.510Z,6.60
2019-04-27T03:43:23.498Z,7.87
2019-04-27T03:45:55.234Z,6.80
2019-04-27T03:48:22.166Z,6.00
2019-04-27T03:51:10.170Z,5.47
2019-04-27T03:54:03.091Z,6.00
2019-04-27T03:56:59.108Z,8.00
2019-04-27T03:59:45.911Z,5.07
2019-04-27T04:02:12.879Z,4.67
2019-04-27T04:04:40.540Z,4.57
2019-04-27T04:07:13.261Z,7.23
2019-04-27T04:09:40.539Z,5.80
2019-04-27T04:12:13.434Z,8.03
2019-04-27T04:14:42.918Z,10.33
2019-04-27T04:17:20.413Z,8.57
2019-04-27T04:19:55.946Z,8.40
2019-04-27T04:22:16.237Z,5.23
2019-04-27T04:24:43.219Z,3.63
2019-04-27T04:27:10.200Z,8.50
2019-04-27T04:29:39.383Z,5.03
2019-04-27T04:32:05.995Z,5.40
2019-04-27T04:34:32.929Z,5.07
2019-04-27T04:37:00.613Z,6.63
2019-04-27T04:39:29.694Z,6.57
2019-04-27T04:42:06.040Z,9.07
2019-04-27T04:45:01.765Z,6.80
2019-04-27T04:47:40.748Z,3.63
2019-04-27T04:50:14.670Z,4.97
2019-04-27T04:52:39.692Z,5.83
2019-04-27T04:55:09.689Z,9.10
2019-04-27T04:57:36.442Z,8.07
2019-04-27T05:00:04.207Z,6.10
2019-04-27T05:02:31.141Z,10.63
2019-04-27T05:04:59.097Z,5.73
2019-04-27T05:07:26.111Z,4.63
2019-04-27T05:09:53.049Z,6.07
2019-04-27T05:12:20.027Z,9.70
2019-04-27T05:14:48.809Z,6.67
2019-04-27T05:17:23.313Z,7.90
2019-04-27T05:19:50.967Z,7.57
2019-04-27T05:22:19.426Z,7.07
2019-04-27T05:24:49.477Z,5.33
2019-04-27T05:27:16.416Z,8.13
2019-04-27T05:29:43.365Z,6.33
2019-04-27T05:32:10.348Z,7.67
2019-04-27T05:34:37.288Z,6.57
2019-04-27T05:37:04.216Z,7.90
2019-04-27T05:39:31.346Z,8.20
2019-04-27T05:41:59.785Z,7.60
2019-04-27T05:45:01.144Z,5.23
2019-04-27T05:47:53.567Z,7.27
2019-04-27T05:50:21.960Z,7.83
2019-04-27T05:52:49.765Z,9.10
2019-04-27T05:55:16.703Z,4.87
2019-04-27T05:57:45.440Z,6.87
2019-04-27T06:00:15.811Z,6.80
2019-04-27T06:02:43.047Z,5.73
2019-04-27T06:05:10.207Z,6.60
2019-04-27T06:07:39.497Z,9.00
2019-04-27T06:10:09.545Z,5.00
2019-04-27T06:12:36.657Z,5.93
2019-04-27T06:15:04.603Z,5.73
2019-04-27T06:17:31.580Z,11.07
2019-04-27T06:19:59.420Z,5.93
2019-04-27T06:22:26.729Z,8.33
2019-04-27T06:24:54.639Z,7.20
2019-04-27T06:27:21.640Z,9.40
2019-04-27T06:29:49.068Z,10.20
2019-04-27T06:32:16.204Z,9.53
2019-04-27T06:34:43.132Z,9.27
2019-04-27T06:37:10.059Z,10.70
2019-04-27T06:39:57.152Z,8.17
2019-04-27T06:42:24.099Z,15.10
2019-04-27T06:44:51.078Z,10.03
2019-04-27T06:47:19.114Z,10.77
2019-04-27T06:49:49.544Z,7.07
2019-04-27T06:52:18.712Z,10.70
2019-04-27T06:54:45.857Z,11.17
2019-04-27T06:57:12.789Z,10.67
2019-04-27T06:59:40.044Z,11.43
2019-04-27T07:02:08.857Z,11.40
2019-04-27T07:04:35.798Z,8.40
2019-04-27T07:07:02.877Z,10.23
2019-04-27T07:09:29.832Z,11.13
2019-04-27T07:11:56.775Z,8.87
2019-04-27T07:14:23.719Z,11.97
2019-04-27T07:16:50.938Z,11.00
2019-04-27T07:19:19.026Z,10.13
2019-04-27T07:21:46.249Z,11.40
2019-04-27T07:24:13.251Z,11.93
2019-04-27T07:26:40.204Z,11.70
2019-04-27T07:29:07.141Z,12.87
2019-04-27T07:31:34.137Z,9.50
2019-04-27T07:34:01.119Z,11.80
2019-04-27T07:36:28.973Z,12.93
2019-04-27T07:38:56.230Z,13.27
2019-04-27T07:41:32.273Z,12.03
2019-04-27T07:44:27.202Z,14.07
2019-04-27T07:47:12.631Z,12.53
2019-04-27T07:49:39.560Z,15.97
2019-04-27T07:52:06.567Z,12.73
2019-04-27T07:54:33.956Z,12.23
2019-04-27T07:57:00.926Z,15.60
2019-04-27T07:59:29.463Z,13.67
2019-04-27T08:01:56.594Z,14.83
2019-04-27T08:04:23.521Z,14.40
2019-04-27T08:06:50.466Z,13.33
2019-04-27T08:09:19.044Z,12.63
2019-04-27T08:11:46.086Z,10.57
2019-04-27T08:14:13.148Z,16.77
2019-04-27T08:16:40.150Z,15.27
2019-04-27T08:19:25.559Z,15.23
2019-04-27T08:21:52.532Z,13.30
2019-04-27T08:24:20.572Z,19.00
2019-04-27T08:26:56.326Z,20.20
2019-04-27T08:29:34.992Z,12.47
2019-04-27T08:32:09.602Z,20.90
2019-04-27T08:34:37.499Z,13.90
2019-04-27T08:37:04.667Z,10.10
2019-04-27T08:39:31.644Z,8.00
2019-04-27T08:41:59.465Z,6.83
2019-04-27T08:44:26.552Z,11.53
2019-04-27T08:46:53.541Z,8.77
2019-04-27T08:49:20.525Z,14.17
2019-04-27T08:51:58.613Z,10.90
2019-04-27T08:54:16.879Z,9.83
2019-04-27T08:56:43.815Z,11.73
2019-04-27T08:59:10.771Z,12.47
2019-04-27T09:01:39.342Z,11.07
2019-04-27T09:04:06.601Z,16.43
2019-04-27T09:06:37.308Z,12.13
2019-04-27T09:09:09.710Z,14.63
2019-04-27T09:14:54.187Z,10.07
2019-04-27T09:17:43.566Z,18.37
2019-04-27T09:20:18.674Z,14.63
2019-04-27T09:22:45.672Z,13.67
2019-04-27T09:25:12.739Z,10.57
2019-04-27T09:27:39.724Z,8.23
2019-04-27T09:30:08.403Z,15.73
2019-04-27T09:32:36.445Z,16.07
2019-04-27T09:35:03.377Z,11.90
2019-04-27T09:37:30.389Z,13.93
2019-04-27T09:39:57.391Z,10.77
2019-04-27T09:42:24.367Z,8.80
2019-04-27T09:44:51.511Z,13.60
2019-04-27T09:47:18.467Z,12.43
2019-04-27T09:49:46.062Z,8.20
2019-04-27T09:52:24.323Z,15.80
2019-04-27T09:54:43.982Z,10.70
2019-04-27T09:57:12.724Z,9.67
2019-04-27T09:59:39.907Z,9.50
2019-04-27T10:02:08.643Z,11.50
2019-04-27T10:04:35.799Z,10.07
2019-04-27T10:07:06.199Z,13.63
2019-04-27T10:09:38.493Z,15.73
2019-04-27T10:12:07.321Z,14.43
2019-04-27T10:14:34.523Z,15.37
2019-04-27T10:17:01.523Z,14.10
2019-04-27T10:19:32.982Z,16.63
2019-04-27T10:21:57.528Z,15.03
2019-04-27T10:24:25.762Z,18.17
2019-04-27T10:26:52.897Z,22.93
2019-04-27T10:29:19.898Z,18.00
2019-04-27T10:31:48.293Z,15.37
2019-04-27T10:34:15.607Z,18.47
2019-04-27T10:36:42.543Z,20.87
2019-04-27T10:39:13.396Z,17.53
2019-04-27T10:41:40.742Z,13.77
2019-04-27T10:44:08.549Z,17.67
2019-04-27T10:46:35.592Z,20.27
2019-04-27T10:49:03.772Z,15.77
2019-04-27T10:51:33.683Z,11.67
2019-04-27T10:54:00.711Z,6.90
2019-04-27T10:56:27.704Z,5.87
2019-04-27T10:58:55.820Z,9.83
2019-04-27T11:01:22.918Z,7.63
2019-04-27T11:04:05.984Z,4.33
2019-04-27T11:06:35.771Z,6.17
2019-04-27T11:09:06.129Z,6.67
2019-04-27T11:11:33.131Z,3.83
2019-04-27T11:14:01.025Z,5.27
2019-04-27T11:16:28.307Z,6.43
2019-04-27T11:18:56.472Z,7.37
2019-04-27T11:21:26.084Z,8.73
2019-04-27T11:23:53.198Z,5.70
2019-04-27T11:26:20.155Z,6.43
2019-04-27T11:28:47.119Z,8.67
2019-04-27T11:31:16.983Z,6.67
2019-04-27T11:33:43.004Z,4.63
2019-04-27T11:36:28.496Z,7.47
2019-04-27T11:38:56.594Z,5.50
2019-04-27T11:41:23.572Z,13.17
2019-04-27T11:43:56.545Z,5.37
2019-04-27T11:46:23.720Z,7.30
2019-04-27T11:48:50.676Z,7.57
2019-04-27T11:51:17.610Z,6.90
2019-04-27T11:53:44.581Z,6.60
2019-04-27T11:56:11.811Z,7.97
2019-04-27T11:58:38.808Z,13.20
2019-04-27T12:01:26.928Z,7.90
2019-04-27T12:03:55.642Z,12.83
2019-04-27T12:06:22.792Z,10.03
2019-04-27T12:08:49.825Z,9.17
2019-04-27T12:11:21.268Z,10.13
2019-04-27T12:13:48.223Z,7.33
2019-04-27T12:16:15.586Z,12.57
2019-04-27T12:18:48.832Z,10.37
2019-04-27T12:21:13.483Z,12.23
2019-04-27T12:23:41.395Z,13.20
2019-04-27T12:26:11.621Z,12.57
2019-04-27T12:28:45.966Z,17.23
2019-04-27T12:31:29.355Z,14.70
2019-04-27T12:33:56.324Z,12.40
2019-04-27T12:36:25.874Z,14.40
2019-04-27T12:38:52.972Z,13.80
2019-04-27T12:41:21.230Z,12.40
2019-04-27T12:43:48.213Z,11.33
2019-04-27T12:46:16.004Z,13.13
2019-04-27T12:48:43.276Z,18.67
2019-04-27T12:51:10.233Z,18.77
2019-04-27T12:53:50.573Z,13.37
2019-04-27T12:56:21.782Z,13.47
2019-04-27T12:59:07.872Z,16.77
2019-04-27T13:01:36.072Z,12.70
2019-04-27T13:04:03.271Z,10.47
2019-04-27T13:06:30.225Z,16.00
2019-04-27T13:08:57.217Z,7.43
2019-04-27T13:11:24.178Z,10.40
2019-04-27T13:13:51.147Z,14.20
2019-04-27T13:16:18.146Z,10.00
2019-04-27T13:18:45.167Z,11.10
2019-04-27T13:21:13.265Z,7.43
2019-04-27T13:23:40.329Z,8.20
2019-04-27T13:26:07.313Z,4.13
2019-04-27T13:28:35.857Z,5.63
2019-04-27T13:31:03.414Z,4.77
2019-04-27T13:33:30.442Z,2.90
2019-04-27T13:35:58.531Z,6.77
2019-04-27T13:38:26.745Z,5.17
2019-04-27T13:41:09.812Z,8.17
2019-04-27T13:43:37.156Z,6.60
2019-04-27T13:46:17.048Z,9.27
2019-04-27T13:49:21.737Z,7.20
2019-04-27T13:51:55.649Z,11.60
2019-04-27T13:54:26.455Z,5.93
2019-04-27T13:56:51.739Z,9.93
2019-04-27T13:59:18.714Z,9.57
2019-04-27T14:01:45.711Z,6.00
2019-04-27T14:04:13.940Z,10.07
2019-04-27T14:06:42.847Z,5.93
2019-04-27T14:09:12.587Z,4.50
2019-04-27T14:11:39.296Z,8.23
2019-04-27T14:14:06.586Z,5.17
2019-04-27T14:16:33.700Z,5.77
2019-04-27T14:19:00.661Z,4.57
2019-04-27T14:21:29.659Z,6.17
2019-04-27T14:23:58.668Z,5.43
2019-04-27T14:26:25.694Z,6.77
2019-04-27T14:28:52.802Z,4.77
2019-04-27T14:31:19.848Z,3.80
2019-04-27T14:33:48.419Z,5.20
2019-04-27T14:36:15.549Z,6.00
2019-04-27T14:38:42.547Z,6.27
2019-04-27T14:41:09.496Z,6.57
2019-04-27T14:43:36.573Z,4.97
2019-04-27T14:46:03.665Z,6.57
2019-04-27T14:48:30.627Z,7.87
2019-04-27T14:50:59.059Z,9.33
2019-04-27T14:53:44.842Z,13.80
2019-04-27T14:56:11.816Z,11.20
2019-04-27T14:58:40.220Z,11.20
2019-04-27T15:01:08.233Z,10.03
2019-04-27T15:03:38.607Z,11.90
2019-04-27T15:06:05.691Z,14.33
2019-04-27T15:08:34.121Z,13.67
2019-04-27T15:11:01.289Z,8.97
2019-04-27T15:13:28.454Z,18.03
2019-04-27T15:15:55.497Z,10.50
2019-04-27T15:18:24.675Z,10.13
2019-04-27T15:20:51.817Z,10.87
2019-04-27T15:23:37.450Z,11.73
2019-04-27T15:26:04.471Z,8.93
2019-04-27T15:28:34.330Z,15.77
2019-04-27T15:31:26.393Z,12.60
2019-04-27T15:33:58.915Z,11.03
2019-04-27T15:36:40.682Z,8.93
2019-04-27T15:39:13.328Z,14.93
2019-04-27T15:41:48.446Z,11.53
2019-04-27T15:44:18.749Z,9.50
2019-04-27T15:46:45.854Z,13.43
2019-04-27T15:49:12.821Z,15.03
2019-04-27T15:51:39.954Z,9.73
2019-04-27T15:54:10.424Z,12.07
2019-04-27T15:56:37.529Z,17.53
2019-04-27T15:59:04.662Z,12.37
2019-04-27T16:01:35.807Z,11.53
2019-04-27T16:04:02.560Z,14.83
2019-04-27T16:06:29.509Z,20.53
2019-04-27T16:09:24.218Z,12.50
2019-04-27T16:11:50.091Z,15.13
2019-04-27T16:14:14.894Z,14.20
2019-04-27T16:16:41.907Z,15.43
2019-04-27T16:19:11.521Z,12.27
2019-04-27T16:21:41.577Z,9.50
2019-04-27T16:24:08.347Z,7.70
2019-04-27T16:26:35.447Z,17.70
2019-04-27T16:29:02.405Z,16.93
2019-04-27T16:31:32.825Z,12.23
2019-04-27T16:34:02.523Z,19.23
2019-04-27T16:36:28.785Z,21.97
2019-04-27T16:39:03.872Z,20.20
2019-04-27T16:41:28.883Z,18.83
2019-04-27T16:44:02.317Z,26.53
2019-04-27T16:46:29.559Z,14.23
2019-04-27T16:48:59.279Z,14.47
2019-04-27T16:51:25.425Z,18.97
2019-04-27T16:53:54.663Z,16.07
2019-04-27T16:56:24.433Z,23.20
2019-04-27T16:58:56.709Z,20.93
2019-04-27T17:01:24.484Z,17.00
2019-04-27T17:03:51.809Z,15.33
2019-04-27T17:06:21.450Z,22.83
2019-04-27T17:08:49.669Z,17.10
2019-04-27T17:11:17.065Z,20.97
2019-04-27T17:13:51.997Z,17.70
2019-04-27T17:16:36.148Z,17.67
2019-04-27T17:19:12.308Z,19.63
2019-04-27T17:21:41.118Z,22.47
2019-04-27T17:24:09.097Z,21.83
2019-04-27T17:26:42.343Z,17.17
2019-04-27T17:29:16.050Z,17.20
2019-04-27T17:31:41.891Z,13.30
2019-04-27T17:34:08.895Z,15.70
2019-04-27T17:36:35.934Z,17.03
2019-04-27T17:39:05.342Z,16.07
2019-04-27T17:41:32.445Z,21.90
2019-04-27T17:43:59.484Z,14.53
2019-04-27T17:46:28.052Z,27.13
2019-04-27T17:48:55.241Z,14.77
2019-04-27T17:51:22.373Z,21.23
2019-04-27T17:53:51.113Z,17.23
2019-04-27T17:56:18.561Z,13.53
2019-04-27T17:58:45.710Z,17.60
2019-04-27T18:01:13.971Z,14.53
2019-04-27T18:03:41.651Z,12.03
2019-04-27T18:06:14.794Z,21.17
2019-04-27T18:08:41.814Z,16.40
2019-04-27T18:11:08.941Z,13.97
2019-04-27T18:13:36.032Z,18.60
2019-04-27T18:16:03.146Z,19.73
2019-04-27T18:18:43.407Z,20.20
2019-04-27T18:21:10.763Z,20.70
2019-04-27T18:23:45.468Z,15.87
2019-04-27T18:26:19.106Z,19.63
2019-04-27T18:28:52.234Z,12.77
2019-04-27T18:31:17.725Z,18.07
2019-04-27T18:33:44.889Z,22.00
2019-04-27T18:36:14.330Z,19.63
2019-04-27T18:38:40.683Z,20.93
2019-04-27T18:41:50.696Z,20.47
2019-04-27T18:44:16.641Z,20.73
2019-04-27T18:46:43.691Z,52.00
2019-04-27T18:52:27.726Z,15.37
2019-04-27T18:54:54.738Z,18.07
2019-04-27T18:57:21.737Z,21.60
2019-04-27T18:59:48.700Z,20.33
2019-04-27T19:02:15.690Z,22.47
2019-04-27T19:04:42.703Z,20.53
2019-04-27T19:07:10.732Z,17.50
2019-04-27T19:09:37.750Z,16.87
2019-04-27T19:12:04.867Z,24.90
2019-04-27T19:14:40.531Z,20.23
2019-04-27T19:17:08.592Z,23.53
2019-04-27T19:19:35.543Z,28.17
2019-04-27T19:22:10.928Z,26.37
2019-04-27T19:24:38.342Z,22.73
2019-04-27T19:27:17.853Z,18.77
2019-04-27T19:29:45.921Z,24.10
2019-04-27T19:32:13.253Z,22.80
2019-04-27T19:34:40.280Z,27.10
2019-04-27T19:37:08.131Z,23.47
2019-04-27T19:39:35.287Z,22.47
2019-04-27T19:42:03.805Z,24.50
2019-04-27T19:44:31.360Z,19.17
2019-04-27T19:47:00.242Z,20.73
2019-04-27T19:49:31.263Z,22.43
2019-04-27T19:51:56.128Z,23.73
2019-04-27T19:54:23.086Z,28.03
2019-04-27T19:56:50.158Z,23.47
2019-04-27T19:59:28.190Z,28.53
2019-04-27T20:01:58.400Z,20.27
2019-04-27T20:04:30.797Z,27.30
2019-04-27T20:06:59.209Z,23.67
2019-04-27T20:09:31.940Z,25.80
2019-04-27T20:12:00.671Z,24.40
2019-04-27T20:14:30.827Z,20.43
2019-04-27T20:16:58.096Z,14.30
2019-04-27T20:19:25.518Z,23.73
2019-04-27T20:21:52.566Z,24.17
2019-04-27T20:24:19.622Z,26.13
2019-04-27T20:26:47.065Z,20.97
2019-04-27T20:29:14.123Z,30.47
2019-04-27T20:31:41.600Z,32.97
2019-04-27T20:34:08.576Z,23.20
2019-04-27T20:36:35.530Z,16.97
2019-04-27T20:39:05.706Z,19.67
2019-04-27T20:41:31.978Z,20.37
2019-04-27T20:43:59.254Z,26.20
2019-04-27T20:46:26.341Z,24.63
2019-04-27T20:48:53.317Z,19.87
2019-04-27T20:51:41.221Z,19.40
2019-04-27T20:54:08.817Z,21.47
2019-04-27T20:56:35.961Z,22.00
2019-04-27T20:59:03.198Z,16.13
2019-04-27T21:01:30.346Z,26.20
2019-04-27T21:04:06.410Z,19.23
2019-04-27T21:06:37.025Z,20.73
2019-04-27T21:09:13.850Z,24.73
2019-04-27T21:11:47.696Z,16.83
2019-04-27T21:14:15.946Z,28.37
2019-04-27T21:16:43.193Z,14.03
2019-04-27T21:19:28.358Z,21.87
2019-04-27T21:21:56.631Z,19.37
2019-04-27T21:24:28.058Z,18.60
2019-04-27T21:26:59.393Z,21.93
2019-04-27T21:29:26.600Z,23.10
2019-04-27T21:31:54.665Z,24.10
2019-04-27T21:34:21.861Z,18.60
2019-04-27T21:36:51.206Z,20.40
2019-04-27T21:39:25.440Z,18.63
2019-04-27T21:41:58.089Z,25.07
2019-04-27T21:44:27.118Z,19.87
2019-04-27T21:47:12.587Z,17.70
2019-04-27T21:49:41.482Z,21.83
2019-04-27T21:52:21.398Z,24.00
2019-04-27T21:55:30.920Z,24.60
2019-04-27T21:57:58.675Z,22.23
2019-04-27T22:00:53.756Z,19.30
2019-04-27T22:03:25.264Z,20.80
2019-04-27T22:05:54.492Z,23.87
2019-04-27T22:08:26.960Z,29.27
2019-04-27T22:10:53.909Z,24.77
2019-04-27T22:13:22.345Z,31.17
2019-04-27T22:15:51.532Z,26.63
2019-04-27T22:18:18.813Z,26.20
2019-04-27T22:20:45.883Z,24.83
2019-04-27T22:23:23.143Z,22.53
2019-04-27T22:25:54.121Z,18.83
2019-04-27T22:28:19.170Z,19.73
2019-04-27T22:30:46.308Z,26.50
2019-04-27T22:33:18.847Z,18.50
2019-04-27T22:35:45.962Z,19.37
2019-04-27T22:38:12.951Z,22.03
2019-04-27T22:41:03.411Z,24.23
2019-04-27T22:43:45.354Z,17.63
2019-04-27T22:46:15.875Z,24.60
2019-04-27T22:48:43.956Z,25.40
2019-04-27T22:51:11.712Z,20.70
2019-04-27T22:53:41.090Z,17.50
2019-04-27T22:56:17.192Z,19.40
2019-04-27T22:58:59.983Z,18.43
2019-04-27T23:01:38.283Z,23.80
2019-04-27T23:04:07.227Z,20.00
2019-04-27T23:06:35.939Z,33.70
2019-04-27T23:09:03.977Z,18.40
2019-04-27T23:11:31.409Z,16.80
2019-04-27T23:13:58.548Z,24.33
2019-04-27T23:16:27.455Z,19.67
2019-04-27T23:18:54.496Z,23.77
2019-04-27T23:21:21.479Z,19.37
2019-04-27T23:23:48.740Z,28.67
2019-04-27T23:26:15.795Z,15.63
2019-04-27T23:28:45.244Z,22.50
2019-04-27T23:31:22.226Z,20.17
2019-04-27T23:33:51.936Z,23.23
2019-04-27T23:36:19.082Z,23.93
2019-04-27T23:39:07.420Z,22.40
2019-04-27T23:41:34.518Z,15.67
2019-04-27T23:44:01.611Z,22.47
2019-04-27T23:46:28.624Z,24.60
2019-04-27T23:48:55.701Z,20.07
2019-04-27T23:51:38.880Z,18.03
2019-04-27T23:54:05.930Z,21.43
2019-04-27T23:56:33.272Z,29.50
2019-04-27T23:59:00.274Z,25.00
